SLET/SRZ METAR and TAF weather

Enter ICAO airport designator
Station Type Date Time Source
SLET METAR 2020/07/10 16:00 UTC NOAA

SLET 101600Z 32013G26KT 9999 FEW015 SCT200 23/15 Q1013


Station Type Date Time Source
SLET Decoded METAR 2020/07/10 16:00 UTC NOAA

Santa Cruz / El Trompillo, Bolivia (SLET) 17-48S 063-11W 414M
Jul 10, 2020 - 12:00 PM EDT / 2020.07.10 1600 UTC
Wind: from the NW (320 degrees) at 15 MPH (13 KT) gusting to 30 MPH (26 KT):0
Visibility: greater than 7 mile(s):0
Sky conditions: partly cloudy
Temperature: 73 F (23 C)
Dew Point: 59 F (15 C)
Relative Humidity: 60%
Pressure (altimeter): 29.91 in. Hg (1013 hPa)
ob: SLET 101600Z 32013G26KT 9999 FEW015 SCT200 23/15 Q1013
cycle: 16

Station Type Date Time Source
SLET TAF 2020/07/10 12:54 UTC NOAA

TAF TAF SLET 101050Z 1012/1112 33015KT 9999 SCT027 BKN080 TX20/1019Z TN16/1111Z
BECMG 1023/1101 33008KT NSC

Example: see airport list